createdAt,value
2018-05-26T00:00:30.069Z,19.30
2018-05-26T00:02:58.335Z,19.30
2018-05-26T00:05:25.809Z,19.30
2018-05-26T00:07:54.047Z,19.30
2018-05-26T00:10:21.536Z,19.20
2018-05-26T00:12:49.777Z,19.20
2018-05-26T00:15:17.267Z,19.20
2018-05-26T00:17:45.501Z,19.20
2018-05-26T00:20:13.021Z,19.20
2018-05-26T00:22:40.491Z,19.20
2018-05-26T00:25:07.964Z,19.30
2018-05-26T00:27:35.453Z,19.20
2018-05-26T00:30:03.698Z,19.10
2018-05-26T00:32:31.181Z,19.10
2018-05-26T00:34:58.650Z,19.10
2018-05-26T00:37:26.918Z,19.10
2018-05-26T00:39:55.151Z,19.00
2018-05-26T00:42:22.621Z,19.00
2018-05-26T00:44:50.113Z,18.90
2018-05-26T00:47:18.353Z,18.90
2018-05-26T00:49:45.840Z,18.90
2018-05-26T00:52:14.077Z,18.90
2018-05-26T00:54:41.565Z,18.90
2018-05-26T00:57:09.801Z,18.90
2018-05-26T00:59:37.277Z,18.90
2018-05-26T01:02:04.770Z,18.90
2018-05-26T01:04:32.237Z,18.90
2018-05-26T01:07:00.490Z,18.80
2018-05-26T01:09:28.726Z,18.80
2018-05-26T01:11:56.213Z,18.80
2018-05-26T01:14:24.452Z,18.80
2018-05-26T01:16:51.938Z,18.80
2018-05-26T01:19:20.429Z,18.70
2018-05-26T01:21:48.689Z,18.60
2018-05-26T01:24:16.933Z,18.70
2018-05-26T01:26:44.425Z,18.70
2018-05-26T01:29:12.664Z,18.50
2018-05-26T01:31:40.137Z,18.50
2018-05-26T01:34:07.677Z,18.50
2018-05-26T01:36:35.151Z,18.50
2018-05-26T01:39:02.642Z,18.50
2018-05-26T01:41:30.111Z,18.50
2018-05-26T01:43:57.605Z,18.40
2018-05-26T01:46:25.080Z,18.30
2018-05-26T01:48:52.569Z,18.30
2018-05-26T01:51:20.041Z,18.30
2018-05-26T01:53:47.857Z,18.20
2018-05-26T01:56:15.325Z,18.10
2018-05-26T01:58:43.576Z,18.10
2018-05-26T02:01:11.069Z,18.10
2018-05-26T02:03:38.538Z,18.10
2018-05-26T02:06:06.025Z,18.20
2018-05-26T02:08:33.497Z,18.10
2018-05-26T02:11:00.983Z,18.10
2018-05-26T02:13:29.221Z,18.00
2018-05-26T02:15:56.715Z,18.00
2018-05-26T02:18:24.958Z,18.00
2018-05-26T02:20:52.433Z,18.00
2018-05-26T02:23:20.685Z,17.90
2018-05-26T02:25:48.161Z,17.90
2018-05-26T02:28:16.417Z,17.80
2018-05-26T02:30:45.397Z,17.80
2018-05-26T02:33:12.883Z,17.80
2018-05-26T02:35:41.129Z,17.80
2018-05-26T02:38:08.617Z,17.80
2018-05-26T02:40:36.849Z,17.70
2018-05-26T02:43:04.337Z,17.70
2018-05-26T02:45:32.579Z,17.70
2018-05-26T02:48:00.072Z,17.70
2018-05-26T02:50:28.309Z,17.70
2018-05-26T02:52:55.825Z,17.70
2018-05-26T02:55:23.301Z,17.70
2018-05-26T02:57:50.773Z,17.70
2018-05-26T03:00:19.025Z,17.70
2018-05-26T03:02:46.537Z,17.60
2018-05-26T03:05:20.398Z,17.60
2018-05-26T03:07:53.741Z,17.60
2018-05-26T03:10:27.642Z,17.50
2018-05-26T03:13:00.770Z,17.50
2018-05-26T03:15:27.766Z,17.40
2018-05-26T03:17:59.201Z,17.40
2018-05-26T03:20:26.689Z,17.40
2018-05-26T03:22:54.926Z,17.30
2018-05-26T03:25:22.415Z,17.30
2018-05-26T03:27:50.652Z,17.30
2018-05-26T03:30:18.139Z,17.30
2018-05-26T03:32:46.377Z,17.30
2018-05-26T03:35:13.861Z,17.30
2018-05-26T03:37:41.329Z,17.30
2018-05-26T03:40:09.090Z,17.30
2018-05-26T03:42:36.561Z,17.30
2018-05-26T03:45:04.801Z,17.20
2018-05-26T03:47:32.285Z,17.10
2018-05-26T03:50:00.526Z,17.10
2018-05-26T03:52:28.780Z,17.10
2018-05-26T03:58:19.974Z,17.20
2018-05-26T04:00:47.449Z,17.20
2018-05-26T04:03:14.933Z,17.20
2018-05-26T04:05:42.456Z,17.20
2018-05-26T04:08:09.906Z,17.20
2018-05-26T04:10:37.386Z,17.20
2018-05-26T04:13:04.877Z,17.20
2018-05-26T04:15:32.350Z,17.30
2018-05-26T04:20:35.338Z,17.30
2018-05-26T04:23:02.805Z,17.30
2018-05-26T04:25:31.060Z,17.40
2018-05-26T04:27:58.534Z,17.40
2018-05-26T04:30:26.023Z,17.50
2018-05-26T04:32:53.494Z,17.50
2018-05-26T04:35:21.030Z,17.60
2018-05-26T04:37:48.469Z,17.60
2018-05-26T04:40:16.104Z,17.60
2018-05-26T04:42:43.572Z,17.70
2018-05-26T04:45:11.050Z,17.80
2018-05-26T04:47:39.296Z,17.80
2018-05-26T04:50:06.769Z,17.80
2018-05-26T04:52:35.029Z,17.90
2018-05-26T04:55:02.506Z,17.90
2018-05-26T04:57:30.009Z,18.10
2018-05-26T04:59:57.485Z,18.20
2018-05-26T05:02:24.968Z,18.20
2018-05-26T05:04:53.205Z,18.40
2018-05-26T05:07:20.689Z,18.40
2018-05-26T05:09:48.928Z,18.50
2018-05-26T05:12:16.397Z,18.50
2018-05-26T05:14:43.880Z,18.60
2018-05-26T05:17:12.122Z,18.90
2018-05-26T05:19:39.916Z,18.90
2018-05-26T05:22:08.157Z,19.00
2018-05-26T05:24:35.640Z,19.00
2018-05-26T05:27:03.881Z,19.70
2018-05-26T05:29:31.371Z,19.70
2018-05-26T05:31:59.611Z,20.70
2018-05-26T05:34:27.105Z,20.70
2018-05-26T05:36:55.352Z,21.40
2018-05-26T05:39:22.836Z,21.40
2018-05-26T05:41:51.077Z,22.20
2018-05-26T05:44:18.558Z,22.20
2018-05-26T05:46:46.028Z,22.60
2018-05-26T05:49:14.541Z,23.70
2018-05-26T05:51:42.014Z,23.60
2018-05-26T05:54:09.481Z,23.10
2018-05-26T05:56:37.010Z,23.10
2018-05-26T05:59:04.617Z,23.50
2018-05-26T06:01:31.977Z,23.90
2018-05-26T06:04:00.214Z,24.70
2018-05-26T06:06:27.702Z,24.70
2018-05-26T06:08:55.169Z,24.00
2018-05-26T06:11:23.417Z,24.10
2018-05-26T06:13:50.885Z,24.10
2018-05-26T06:16:18.369Z,24.50
2018-05-26T06:18:45.840Z,24.50
2018-05-26T06:21:13.324Z,24.80
2018-05-26T06:23:40.793Z,25.00
2018-05-26T06:26:09.269Z,25.10
2018-05-26T06:28:36.741Z,25.30
2018-05-26T06:31:04.214Z,26.10
2018-05-26T06:33:32.469Z,25.90
2018-05-26T06:35:59.999Z,25.80
2018-05-26T06:38:28.207Z,26.50
2018-05-26T06:40:56.453Z,26.30
2018-05-26T06:43:23.937Z,26.30
2018-05-26T06:45:51.405Z,26.70
2018-05-26T06:48:19.978Z,26.20
2018-05-26T06:50:48.274Z,25.90
2018-05-26T06:53:15.706Z,25.90
2018-05-26T06:55:43.186Z,26.00
2018-05-26T06:58:10.653Z,26.90
2018-05-26T07:00:38.137Z,27.90
2018-05-26T07:03:05.601Z,27.90
2018-05-26T07:05:33.088Z,27.90
2018-05-26T07:08:01.328Z,29.00
2018-05-26T07:10:28.809Z,28.90
2018-05-26T07:12:56.273Z,29.10
2018-05-26T07:15:24.526Z,29.40
2018-05-26T07:17:52.031Z,29.30
2018-05-26T07:20:19.501Z,28.80
2018-05-26T07:22:46.985Z,29.00
2018-05-26T07:25:14.454Z,29.70
2018-05-26T07:27:41.946Z,29.70
2018-05-26T07:30:09.409Z,30.20
2018-05-26T07:32:36.901Z,30.00
2018-05-26T07:35:04.366Z,30.70
2018-05-26T07:37:31.853Z,30.70
2018-05-26T07:40:00.089Z,30.70
2018-05-26T07:42:28.494Z,30.60
2018-05-26T07:44:55.962Z,30.60
2018-05-26T07:47:24.205Z,31.60
2018-05-26T07:49:51.673Z,31.50
2018-05-26T07:52:19.153Z,31.70
2018-05-26T07:54:47.381Z,31.60
2018-05-26T07:57:14.861Z,31.60
2018-05-26T07:59:42.331Z,31.50
2018-05-26T08:02:10.573Z,31.90
2018-05-26T08:04:38.053Z,31.90
2018-05-26T08:07:05.534Z,32.00
2018-05-26T08:09:33.036Z,33.00
2018-05-26T08:12:00.506Z,33.30
2018-05-26T08:14:27.981Z,33.10
2018-05-26T08:21:53.094Z,34.10
2018-05-26T08:24:20.862Z,34.50
2018-05-26T08:26:48.328Z,34.30
2018-05-26T08:29:15.804Z,34.30
2018-05-26T08:31:43.302Z,34.50
2018-05-26T08:34:10.770Z,34.80
2018-05-26T08:36:38.254Z,34.90
2018-05-26T08:39:06.494Z,34.40
2018-05-26T08:41:33.976Z,34.40
2018-05-26T08:44:01.441Z,33.80
2018-05-26T08:46:29.693Z,33.30
2018-05-26T08:48:57.164Z,33.20
2018-05-26T08:51:25.421Z,33.20
2018-05-26T08:53:52.885Z,33.20
2018-05-26T08:56:20.349Z,32.90
2018-05-26T08:58:48.612Z,33.40
2018-05-26T09:01:16.081Z,33.40
2018-05-26T09:03:44.343Z,33.50
2018-05-26T09:06:11.807Z,33.50
2018-05-26T09:08:39.289Z,33.40
2018-05-26T09:11:07.525Z,33.50
2018-05-26T09:13:35.024Z,33.50
2018-05-26T09:16:02.498Z,33.20
2018-05-26T09:18:29.985Z,33.30
2018-05-26T09:20:57.452Z,33.80
2018-05-26T09:23:25.860Z,34.10
2018-05-26T09:25:54.105Z,33.30
2018-05-26T09:28:21.571Z,33.30
2018-05-26T09:30:49.050Z,33.50
2018-05-26T09:33:17.302Z,33.60
2018-05-26T09:35:44.781Z,33.60
2018-05-26T09:38:12.245Z,33.70
2018-05-26T09:40:39.725Z,33.20
2018-05-26T09:43:07.193Z,33.80
2018-05-26T09:45:34.681Z,33.30
2018-05-26T09:48:02.167Z,33.60
2018-05-26T09:50:30.413Z,34.80
2018-05-26T09:52:58.653Z,35.30
2018-05-26T09:55:26.121Z,35.30
2018-05-26T09:57:53.609Z,35.00
2018-05-26T10:00:21.841Z,33.40
2018-05-26T10:02:49.329Z,33.40
2018-05-26T10:05:16.789Z,33.30
2018-05-26T10:07:45.077Z,33.80
2018-05-26T10:10:13.314Z,33.70
2018-05-26T10:12:40.825Z,33.60
2018-05-26T10:15:08.301Z,33.80
2018-05-26T10:17:36.113Z,33.60
2018-05-26T10:20:04.345Z,33.70
2018-05-26T10:22:32.577Z,33.80
2018-05-26T10:25:00.825Z,33.90
2018-05-26T10:27:28.297Z,33.90
2018-05-26T10:29:56.573Z,33.90
2018-05-26T10:32:24.386Z,33.90
2018-05-26T10:34:51.862Z,34.10
2018-05-26T10:37:19.337Z,34.60
2018-05-26T10:39:46.860Z,35.00
2018-05-26T10:42:14.325Z,34.60
2018-05-26T10:44:42.560Z,34.20
2018-05-26T10:47:10.052Z,34.10
2018-05-26T10:49:37.525Z,34.00
2018-05-26T10:52:05.012Z,33.90
2018-05-26T10:54:32.481Z,34.10
2018-05-26T10:56:59.981Z,34.40
2018-05-26T10:59:27.445Z,34.80
2018-05-26T11:01:54.909Z,35.80
2018-05-26T11:04:22.424Z,36.30
2018-05-26T11:06:49.870Z,36.70
2018-05-26T11:09:17.349Z,36.40
2018-05-26T11:11:44.816Z,34.50
2018-05-26T11:14:12.309Z,34.40
2018-05-26T11:16:40.541Z,34.70
2018-05-26T11:19:09.527Z,35.30
2018-05-26T11:21:37.023Z,35.30
2018-05-26T11:24:05.575Z,34.10
2018-05-26T11:26:32.745Z,34.10
2018-05-26T11:29:01.029Z,34.20
2018-05-26T11:31:28.493Z,34.20
2018-05-26T11:33:55.966Z,34.30
2018-05-26T11:36:23.433Z,34.50
2018-05-26T11:38:50.916Z,33.90
2018-05-26T11:41:18.385Z,34.50
2018-05-26T11:43:45.873Z,34.10
2018-05-26T11:46:13.348Z,34.00
2018-05-26T11:48:40.837Z,33.60
2018-05-26T11:51:08.305Z,33.70
2018-05-26T11:53:35.769Z,33.50
2018-05-26T11:56:03.265Z,33.80
2018-05-26T11:58:30.750Z,33.50
2018-05-26T12:00:58.245Z,34.10
2018-05-26T12:03:25.709Z,34.50
2018-05-26T12:05:53.970Z,34.50
2018-05-26T12:08:21.441Z,34.50
2018-05-26T12:10:49.691Z,33.10
2018-05-26T12:13:17.167Z,33.00
2018-05-26T12:15:45.409Z,33.40
2018-05-26T12:18:12.896Z,33.40
2018-05-26T12:20:41.133Z,34.40
2018-05-26T12:23:08.621Z,34.40
2018-05-26T12:25:36.863Z,33.70
2018-05-26T12:28:04.329Z,33.70
2018-05-26T12:30:31.813Z,33.70
2018-05-26T12:33:00.049Z,32.60
2018-05-26T12:47:51.660Z,32.70
2018-05-26T12:50:19.132Z,33.50
2018-05-26T12:52:47.381Z,33.20
2018-05-26T12:55:14.852Z,33.10
2018-05-26T12:57:42.347Z,33.50
2018-05-26T13:00:09.806Z,32.60
2018-05-26T13:02:37.273Z,32.90
2018-05-26T13:05:04.754Z,32.90
2018-05-26T13:07:32.221Z,33.40
2018-05-26T13:09:59.703Z,33.50
2018-05-26T13:12:28.018Z,32.90
2018-05-26T13:14:55.506Z,32.90
2018-05-26T13:17:22.973Z,32.70
2018-05-26T13:19:50.441Z,33.00
2018-05-26T13:22:18.690Z,33.20
2018-05-26T13:24:46.153Z,33.20
2018-05-26T13:27:13.635Z,33.30
2018-05-26T13:29:41.880Z,33.60
2018-05-26T13:32:09.360Z,33.60
2018-05-26T13:34:37.598Z,33.00
2018-05-26T13:37:05.069Z,33.00
2018-05-26T13:39:32.547Z,33.10
2018-05-26T13:42:00.793Z,33.30
2018-05-26T13:44:28.277Z,33.20
2018-05-26T13:46:56.511Z,32.90
2018-05-26T13:49:24.011Z,32.80
2018-05-26T13:51:52.241Z,32.80
2018-05-26T13:54:19.704Z,32.80
2018-05-26T13:56:47.185Z,33.00
2018-05-26T13:59:15.418Z,32.30
2018-05-26T14:01:42.902Z,32.30
2018-05-26T14:04:10.373Z,32.30
2018-05-26T14:06:38.684Z,32.50
2018-05-26T14:09:06.161Z,32.50
2018-05-26T14:11:33.650Z,32.60
2018-05-26T14:14:01.115Z,32.30
2018-05-26T14:23:55.837Z,31.50
2018-05-26T14:28:52.552Z,31.30
2018-05-26T14:31:20.017Z,31.00
2018-05-26T14:33:48.249Z,30.80
2018-05-26T14:36:16.517Z,30.30
2018-05-26T14:38:43.976Z,30.30
2018-05-26T14:41:12.222Z,30.60
2018-05-26T14:43:39.689Z,30.60
2018-05-26T14:46:07.174Z,31.00
2018-05-26T14:48:34.645Z,31.20
2018-05-26T14:51:02.118Z,31.60
2018-05-26T14:53:29.598Z,31.70
2018-05-26T14:55:57.069Z,31.80
2018-05-26T14:58:25.488Z,31.70
2018-05-26T15:00:52.953Z,31.70
2018-05-26T15:03:20.475Z,31.50
2018-05-26T15:05:48.711Z,31.40
2018-05-26T15:08:16.176Z,31.30
2018-05-26T15:10:43.661Z,31.50
2018-05-26T15:13:11.960Z,31.50
2018-05-26T15:15:39.389Z,31.40
2018-05-26T15:18:07.621Z,31.70
2018-05-26T15:20:35.109Z,31.70
2018-05-26T15:23:03.341Z,31.40
2018-05-26T15:25:31.592Z,31.30
2018-05-26T15:27:59.065Z,31.20
2018-05-26T15:30:26.530Z,30.90
2018-05-26T15:32:54.013Z,30.70
2018-05-26T15:35:21.481Z,30.80
2018-05-26T15:37:49.728Z,30.70
2018-05-26T15:40:17.248Z,30.70
2018-05-26T15:42:44.737Z,30.40
2018-05-26T15:45:12.197Z,30.20
2018-05-26T15:47:39.670Z,30.10
2018-05-26T15:50:07.153Z,30.30
2018-05-26T15:52:34.730Z,30.30
2018-05-26T15:55:02.214Z,30.30
2018-05-26T15:57:29.681Z,30.10
2018-05-26T15:59:57.226Z,29.90
2018-05-26T16:02:24.665Z,30.10
2018-05-26T16:04:52.137Z,30.20
2018-05-26T16:07:19.622Z,30.30
2018-05-26T16:09:47.087Z,30.40
2018-05-26T16:12:15.696Z,29.80
2018-05-26T16:14:43.901Z,29.50
2018-05-26T16:17:11.401Z,29.50
2018-05-26T16:19:39.640Z,29.50
2018-05-26T16:22:07.106Z,29.50
2018-05-26T16:24:34.589Z,29.40
2018-05-26T16:27:02.824Z,29.30
2018-05-26T16:29:30.328Z,29.30
2018-05-26T16:31:58.553Z,28.90
2018-05-26T16:34:26.034Z,28.90
2018-05-26T16:36:53.501Z,28.90
2018-05-26T16:39:21.735Z,28.80
2018-05-26T16:41:49.217Z,28.80
2018-05-26T16:44:16.689Z,28.70
2018-05-26T16:46:44.948Z,28.80
2018-05-26T16:49:12.415Z,28.80
2018-05-26T16:51:40.669Z,28.70
2018-05-26T16:54:08.143Z,28.70
2018-05-26T16:59:11.078Z,28.70
2018-05-26T17:01:38.545Z,28.70
2018-05-26T17:04:06.026Z,28.70
2018-05-26T17:06:33.506Z,28.60
2018-05-26T17:09:01.769Z,28.40
2018-05-26T17:11:29.241Z,28.40
2018-05-26T17:13:57.473Z,28.30
2018-05-26T17:16:25.773Z,28.30
2018-05-26T17:18:53.202Z,28.30
2018-05-26T17:21:20.682Z,28.20
2018-05-26T17:23:48.150Z,28.20
2018-05-26T17:26:16.409Z,28.20
2018-05-26T17:28:43.872Z,28.20
2018-05-26T17:31:11.341Z,28.20
2018-05-26T17:33:39.589Z,28.10
2018-05-26T17:36:07.077Z,28.10
2018-05-26T17:38:35.321Z,28.10
2018-05-26T17:41:02.789Z,28.00
2018-05-26T17:43:30.272Z,28.10
2018-05-26T17:45:57.745Z,28.10
2018-05-26T17:48:25.208Z,28.10
2018-05-26T17:50:52.695Z,28.00
2018-05-26T17:55:55.614Z,27.90
2018-05-26T17:58:23.076Z,27.90
2018-05-26T18:00:51.333Z,27.80
2018-05-26T18:03:18.809Z,27.80
2018-05-26T18:05:47.042Z,27.70
2018-05-26T18:08:15.225Z,27.70
2018-05-26T18:10:42.702Z,27.60
2018-05-26T18:13:11.118Z,27.60
2018-05-26T18:15:38.593Z,27.60
2018-05-26T18:18:06.074Z,27.50
2018-05-26T18:20:33.584Z,27.50
2018-05-26T18:23:01.049Z,27.50
2018-05-26T18:25:28.537Z,27.50
2018-05-26T18:27:56.009Z,27.40
2018-05-26T18:30:23.492Z,27.40
2018-05-26T18:32:51.793Z,27.20
2018-05-26T18:35:19.256Z,27.20
2018-05-26T18:37:46.724Z,27.10
2018-05-26T18:40:14.197Z,27.10
2018-05-26T18:42:41.677Z,27.00
2018-05-26T18:45:09.917Z,26.90
2018-05-26T18:47:37.443Z,26.90
2018-05-26T18:50:04.917Z,26.80
2018-05-26T18:52:32.407Z,26.80
2018-05-26T18:54:59.877Z,26.70
2018-05-26T18:57:28.134Z,26.70
2018-05-26T18:59:55.608Z,26.70
2018-05-26T19:02:23.845Z,26.50
2018-05-26T19:04:51.325Z,26.50
2018-05-26T19:07:18.789Z,26.50
2018-05-26T19:09:47.038Z,26.30
2018-05-26T19:12:14.505Z,26.30
2018-05-26T19:14:42.277Z,26.30
2018-05-26T19:17:10.392Z,26.20
2018-05-26T19:19:37.869Z,26.10
2018-05-26T19:22:05.362Z,26.10
2018-05-26T19:24:33.621Z,26.00
2018-05-26T19:27:01.107Z,25.90
2018-05-26T19:29:29.347Z,25.80
2018-05-26T19:31:56.833Z,25.80
2018-05-26T19:34:25.464Z,25.80
2018-05-26T19:36:52.936Z,25.70
2018-05-26T19:39:20.428Z,25.70
2018-05-26T19:41:48.676Z,25.60
2018-05-26T19:44:16.169Z,25.60
2018-05-26T19:46:43.649Z,25.50
2018-05-26T19:49:11.140Z,25.40
2018-05-26T19:51:38.609Z,25.40
2018-05-26T19:54:06.082Z,25.30
2018-05-26T19:56:34.345Z,25.20
2018-05-26T19:59:01.813Z,25.20
2018-05-26T20:01:30.069Z,25.10
2018-05-26T20:03:57.541Z,25.10
2018-05-26T20:06:25.797Z,25.00
2018-05-26T20:08:53.270Z,24.90
2018-05-26T20:11:21.510Z,24.90
2018-05-26T20:13:49.134Z,24.80
2018-05-26T20:16:16.610Z,24.80
2018-05-26T20:18:44.119Z,24.80
2018-05-26T20:21:12.729Z,24.70
2018-05-26T20:23:40.241Z,24.70
2018-05-26T20:26:07.743Z,24.70
2018-05-26T20:28:35.210Z,24.60
2018-05-26T20:31:02.693Z,24.60
2018-05-26T20:33:30.165Z,24.60
2018-05-26T20:35:57.663Z,24.50
2018-05-26T20:38:25.141Z,24.40
2018-05-26T20:40:52.626Z,24.40
2018-05-26T20:43:20.180Z,24.30
2018-05-26T20:45:47.678Z,24.30
2018-05-26T20:48:15.173Z,24.20
2018-05-26T20:50:42.744Z,24.10
2018-05-26T20:53:10.291Z,24.00
2018-05-26T20:55:37.893Z,24.00
2018-05-26T20:58:06.468Z,23.90
2018-05-26T21:00:34.705Z,23.90
2018-05-26T21:03:02.173Z,23.90
2018-05-26T21:05:29.686Z,23.80
2018-05-26T21:07:57.157Z,23.80
2018-05-26T21:10:24.644Z,23.70
2018-05-26T21:12:52.160Z,23.70
2018-05-26T21:15:19.980Z,23.70
2018-05-26T21:17:47.445Z,23.60
2018-05-26T21:20:15.694Z,23.50
2018-05-26T21:22:43.174Z,23.50
2018-05-26T21:25:11.485Z,23.40
2018-05-26T21:27:39.094Z,23.40
2018-05-26T21:30:06.514Z,23.30
2018-05-26T21:32:34.056Z,23.30
2018-05-26T21:35:01.538Z,23.20
2018-05-26T21:37:29.094Z,23.20
2018-05-26T21:39:56.565Z,23.20
2018-05-26T21:42:24.042Z,23.10
2018-05-26T21:44:52.293Z,23.00
2018-05-26T21:47:19.773Z,23.00
2018-05-26T21:49:48.049Z,23.00
2018-05-26T21:52:16.301Z,22.90
2018-05-26T21:54:43.812Z,22.90
2018-05-26T21:57:11.277Z,22.80
2018-05-26T21:59:38.744Z,22.80
2018-05-26T22:02:06.239Z,22.70
2018-05-26T22:04:33.708Z,22.60
2018-05-26T22:07:01.233Z,22.60
2018-05-26T22:09:28.705Z,22.50
2018-05-26T22:11:56.193Z,22.40
2018-05-26T22:14:23.723Z,22.30
2018-05-26T22:16:51.148Z,22.30
2018-05-26T22:19:18.638Z,22.30
2018-05-26T22:21:46.113Z,22.20
2018-05-26T22:24:13.597Z,22.20
2018-05-26T22:26:41.073Z,22.00
2018-05-26T22:29:08.577Z,22.00
2018-05-26T22:31:36.819Z,21.90
2018-05-26T22:34:04.564Z,21.90
2018-05-26T22:36:32.055Z,21.90
2018-05-26T22:39:00.307Z,21.70
2018-05-26T22:41:27.793Z,21.70
2018-05-26T22:43:56.025Z,21.60
2018-05-26T22:46:23.517Z,21.60
2018-05-26T22:48:51.756Z,21.60
2018-05-26T22:51:19.237Z,21.60
2018-05-26T22:53:47.004Z,21.60
2018-05-26T22:56:15.254Z,21.60
2018-05-26T22:58:42.733Z,21.60
2018-05-26T23:01:10.209Z,21.60
2018-05-26T23:03:38.470Z,21.50
2018-05-26T23:06:06.755Z,21.40
2018-05-26T23:08:34.993Z,21.40
2018-05-26T23:11:02.481Z,21.40
2018-05-26T23:13:30.717Z,21.40
2018-05-26T23:15:58.287Z,21.40
2018-05-26T23:18:25.757Z,21.40
2018-05-26T23:20:54.013Z,21.30
2018-05-26T23:23:21.564Z,21.20
2018-05-26T23:25:49.037Z,21.30
2018-05-26T23:28:16.660Z,21.20
2018-05-26T23:30:44.169Z,21.10
2018-05-26T23:33:11.682Z,21.10
2018-05-26T23:35:39.152Z,21.00
2018-05-26T23:38:06.649Z,21.00
2018-05-26T23:40:34.122Z,21.00
2018-05-26T23:43:01.604Z,21.00
2018-05-26T23:45:29.158Z,21.00
2018-05-26T23:47:56.629Z,21.00
2018-05-26T23:50:24.139Z,20.90
2018-05-26T23:52:51.671Z,20.90
2018-05-26T23:55:20.057Z,20.80
2018-05-26T23:57:47.700Z,20.80
